METAR Data
IDs: Format: Raw Decoded Include TAF

Data at: 1736 UTC 20 May 2022

KAEL 201715Z AUTO 26007KT 230V290 10SM BKN100 13/08 A2955 RMK AO2
KAEL 201655Z AUTO 26007KT 10SM OVC100 13/08 A2953 RMK AO2
KAEL 201635Z AUTO 26004KT 10SM OVC100 12/08 A2952 RMK AO2 LTG DSNT NE
KAEL 201615Z AUTO 28004KT 10SM OVC100 12/08 A2951 RMK AO2 LTG DSNT NE
KAEL 201555Z AUTO 28007KT 10SM OVC100 12/08 A2951 RMK AO2 LTG DSNT NE
KAEL 201535Z AUTO 27003KT 10SM OVC100 12/08 A2950 RMK AO2 LTG DSNT NE
KAEL 201515Z AUTO 27004KT 10SM OVC100 12/09 A2950 RMK AO2 LTG DSNT NE
KAEL 201455Z AUTO 28004KT 10SM OVC090 12/09 A2950 RMK AO2
KAEL 201435Z AUTO 29007KT 10SM OVC090 11/09 A2949 RMK AO2 LTG DSNT NE
KAEL 201415Z AUTO 28005KT 10SM OVC090 11/10 A2949 RMK AO2
KAEL 201355Z AUTO 27005KT 10SM SCT010 OVC090 11/10 A2947 RMK AO2 LTG DSNT NE P0001
KAEL 201335Z AUTO 29004KT 7SM -RA OVC090 11/10 A2947 RMK AO2 LTG DSNT NE P0001
KAEL 201315Z AUTO 26003KT 10SM -VCTSRA OVC090 11/10 A2947 RMK AO2 LTG DSNT N
KAEL 201255Z AUTO 25003KT 10SM -RA OVC090 11/10 A2945 RMK AO2 LTG DSNT N AND S P0001
KAEL 201235Z AUTO 00000KT 10SM OVC080 11/10 A2943 RMK AO2 LTG DSNT N AND NE P0001
KAEL 201215Z AUTO 29005KT 7SM OVC080 11/10 A2945 RMK AO2 LTG DSNT NE AND S P0001
KAEL 201155Z AUTO 32006KT 10SM SCT011 OVC080 11/10 A2943 RMK AO2 LTG DSNT NE AND S
KAEL 201135Z AUTO 31009G14KT 10SM SCT011 OVC080 12/10 A2943 RMK AO2 LTG DSNT E AND SE
KAEL 201115Z AUTO 30005KT 10SM SCT009 OVC080 12/11 A2941 RMK AO2 LTG DSNT NE THRU SE
KAEL 201055Z AUTO 29008G14KT 10SM VCTS OVC070 12/11 A2942 RMK AO2 LTG DSNT SE THRU NW P0001
KAEL 201035Z AUTO 31007KT 10SM OVC070 12/11 A2939 RMK AO2 LTG DSNT S AND W P0001
KAEL 201015Z AUTO 29004KT 10SM -TSRA OVC070 12/11 A2940 RMK AO2 LTG DSNT NW P0001
KAEL 200955Z AUTO 29004KT 10SM VCTS OVC070 13/11 A2940 RMK AO2 LTG DSNT NE AND W
KAEL 200935Z AUTO 33004KT 10SM OVC070 13/11 A2939 RMK AO2
KAEL 200915Z AUTO 34007KT 10SM OVC070 13/11 A2939 RMK AO2 LTG DSNT N AND NE
KAEL 200855Z AUTO 32007KT 280V340 10SM -VCTSRA OVC070 13/11 A2940 RMK AO2 LTG DSNT N AND SE
KAEL 200835Z AUTO 32011G16KT 10SM OVC070 13/11 A2939 RMK AO2 LTG DSNT NE AND S
KAEL 200815Z AUTO 33010G15KT 10SM OVC080 13/11 A2938 RMK AO2
KAEL 200755Z AUTO 32008G16KT 10SM BKN080 13/11 A2939 RMK AO2 LTG DSNT E P0001
KAEL 200735Z AUTO 33011G21KT 300V360 10SM -RA SCT020 SCT050 BKN080 13/12 A2935 RMK AO2 LTG DSNT SE AND NW P0001
KAEL 200715Z AUTO 32013G23KT 10SM -RA SCT038 SCT050 BKN090 13/12 A2938 RMK AO2 LTG DSNT S P0001
KAEL 200655Z AUTO 30017G25KT 10SM -DZ SCT014 SCT036 BKN042 14/12 A2941 RMK AO2
KAEL 200635Z AUTO 32012G28KT 7SM -RA SCT008 BKN014 BKN080 16/14 A2932 RMK AO2 LTG DSNT N AND NW
KAEL 200615Z AUTO 32015G22KT 7SM BKN008 BKN080 17/15 A2932 RMK AO2 LTG DSNT W THRU NE
KAEL 200555Z AUTO 32012G19KT 10SM SCT010 18/16 A2928 RMK AO2 LTG DSNT SW
KAEL 200535Z AUTO 27011G17KT 220V290 10SM VCTS SCT085 23/16 A2926 RMK AO2
KAEL 200515Z AUTO 22008KT 10SM SCT047 BKN085 23/17 A2924 RMK AO2
KAEL 200455Z AUTO 21010G16KT 10SM SCT047 23/16 A2922 RMK AO2
KAEL 200435Z AUTO 21010G17KT 10SM CLR 24/16 A2923 RMK AO2
KAEL 200415Z AUTO 21014G19KT 10SM CLR 24/16 A2921 RMK AO2
KAEL 200355Z AUTO 21011G21KT 10SM CLR 24/16 A2921 RMK AO2
KAEL 200335Z AUTO 20010G14KT 170V240 10SM CLR 25/16 A2920 RMK AO2
KAEL 200315Z AUTO 22007G14KT 10SM CLR 25/17 A2920 RMK AO2
KAEL 200255Z AUTO 22006G14KT 10SM CLR 26/17 A2920 RMK AO2
KAEL 200235Z AUTO 22007KT 10SM CLR 26/15 A2920 RMK AO2
KAEL 200215Z AUTO 23005KT 10SM SCT060 SCT090 26/14 A2921 RMK AO2 LTG DSNT NE
KAEL 200155Z AUTO 27003KT 10SM SCT060 BKN090 26/14 A2922 RMK AO2 LTG DSNT NE
KAEL 200135Z AUTO 00000KT 10SM -RA OVC090 26/15 A2921 RMK AO2 LTG DSNT ALQDS
KAEL 200115Z AUTO 24004KT 10SM SCT090 27/14 A2920 RMK AO2 LTG DSNT E SW AND NW
KAEL 200055Z AUTO 24008G15KT 10SM SCT100 29/13 A2920 RMK AO2
KAEL 200035Z AUTO 23012G19KT 10SM SCT110 29/13 A2920 RMK AO2
KAEL 200015Z AUTO 23012G24KT 10SM SCT100 29/13 A2919 RMK AO2 LTG DSNT NE
KAEL 192355Z AUTO 23011G19KT 10SM BKN100 29/13 A2919 RMK AO2 LTG DSNT N AND NE P0001